sensor_id;sensor_type;location;lat;lon;timestamp;pressure;altitude;pressure_sealevel;temperature;humidity
84760;BME280;74983;51.084;11.086;2024-01-15T00:02:16;98254.75;;;0.37;84.41
84760;BME280;74983;51.084;11.086;2024-01-15T00:04:42;98252.19;;;0.37;84.75
84760;BME280;74983;51.084;11.086;2024-01-15T00:07:07;98241.88;;;0.38;84.44
84760;BME280;74983;51.084;11.086;2024-01-15T00:09:33;98240.22;;;0.37;84.03
84760;BME280;74983;51.084;11.086;2024-01-15T00:11:59;98234.91;;;0.40;83.96
84760;BME280;74983;51.084;11.086;2024-01-15T00:14:25;98222.22;;;0.39;84.32
84760;BME280;74983;51.084;11.086;2024-01-15T00:16:50;98230.81;;;0.38;84.03
84760;BME280;74983;51.084;11.086;2024-01-15T00:19:16;98241.06;;;0.38;84.26
84760;BME280;74983;51.084;11.086;2024-01-15T00:21:41;98252.19;;;0.37;84.72
84760;BME280;74983;51.084;11.086;2024-01-15T00:24:07;98250.75;;;0.33;84.33
84760;BME280;74983;51.084;11.086;2024-01-15T00:26:33;98251.53;;;0.33;85.19
84760;BME280;74983;51.084;11.086;2024-01-15T00:28:58;98245.63;;;0.33;84.14
84760;BME280;74983;51.084;11.086;2024-01-15T00:31:23;98243.25;;;0.30;84.70
84760;BME280;74983;51.084;11.086;2024-01-15T00:33:48;98239.41;;;0.23;84.58
84760;BME280;74983;51.084;11.086;2024-01-15T00:36:13;98241.56;;;0.15;84.19
84760;BME280;74983;51.084;11.086;2024-01-15T00:38:39;98231.84;;;0.06;84.30
84760;BME280;74983;51.084;11.086;2024-01-15T00:41:05;98233.94;;;-0.01;85.34
84760;BME280;74983;51.084;11.086;2024-01-15T00:43:30;98223.72;;;-0.01;84.59
84760;BME280;74983;51.084;11.086;2024-01-15T00:45:55;98223.28;;;0.07;85.02
84760;BME280;74983;51.084;11.086;2024-01-15T00:48:20;98215.56;;;-0.08;85.34
84760;BME280;74983;51.084;11.086;2024-01-15T00:50:45;98218.47;;;-0.14;85.80
84760;BME280;74983;51.084;11.086;2024-01-15T00:53:11;98239.28;;;-0.20;85.92
84760;BME280;74983;51.084;11.086;2024-01-15T00:55:36;98225.28;;;-0.28;85.56
84760;BME280;74983;51.084;11.086;2024-01-15T00:58:03;98228.66;;;-0.28;85.04
84760;BME280;74983;51.084;11.086;2024-01-15T01:00:28;98225.44;;;-0.31;85.37
84760;BME280;74983;51.084;11.086;2024-01-15T01:02:53;98232.97;;;-0.28;85.27
84760;BME280;74983;51.084;11.086;2024-01-15T01:05:19;98234.91;;;-0.18;84.47
84760;BME280;74983;51.084;11.086;2024-01-15T01:07:44;98233.72;;;-0.12;85.36
84760;BME280;74983;51.084;11.086;2024-01-15T01:10:09;98228.44;;;-0.09;83.68
84760;BME280;74983;51.084;11.086;2024-01-15T01:12:34;98220.03;;;-0.11;84.24
84760;BME280;74983;51.084;11.086;2024-01-15T01:15:00;98232.56;;;-0.07;83.79
84760;BME280;74983;51.084;11.086;2024-01-15T01:17:25;98228.91;;;-0.03;83.32
84760;BME280;74983;51.084;11.086;2024-01-15T01:19:50;98227.84;;;0.02;83.29
84760;BME280;74983;51.084;11.086;2024-01-15T01:22:15;98229.75;;;-0.02;83.40
84760;BME280;74983;51.084;11.086;2024-01-15T01:24:41;98227.94;;;0.00;83.49
84760;BME280;74983;51.084;11.086;2024-01-15T01:27:06;98228.63;;;0.02;83.07
84760;BME280;74983;51.084;11.086;2024-01-15T01:29:32;98223.28;;;0.07;83.20
84760;BME280;74983;51.084;11.086;2024-01-15T01:31:57;98226.19;;;0.15;82.43
84760;BME280;74983;51.084;11.086;2024-01-15T01:34:22;98231.97;;;0.18;82.24
84760;BME280;74983;51.084;11.086;2024-01-15T01:36:47;98238.75;;;0.19;82.82
84760;BME280;74983;51.084;11.086;2024-01-15T01:39:13;98233.63;;;0.19;82.33
84760;BME280;74983;51.084;11.086;2024-01-15T01:41:39;98231.72;;;0.23;81.38
84760;BME280;74983;51.084;11.086;2024-01-15T01:44:04;98228.16;;;0.25;82.20
84760;BME280;74983;51.084;11.086;2024-01-15T01:46:30;98233.72;;;0.32;82.03
84760;BME280;74983;51.084;11.086;2024-01-15T01:48:56;98223.38;;;0.33;82.45
84760;BME280;74983;51.084;11.086;2024-01-15T01:51:24;98223.03;;;0.39;81.61
84760;BME280;74983;51.084;11.086;2024-01-15T01:53:50;98224.69;;;0.40;81.24
84760;BME280;74983;51.084;11.086;2024-01-15T01:56:16;98231.56;;;0.40;81.56
84760;BME280;74983;51.084;11.086;2024-01-15T01:58:43;98231.06;;;0.33;81.27
84760;BME280;74983;51.084;11.086;2024-01-15T02:01:08;98236.03;;;0.36;80.87
84760;BME280;74983;51.084;11.086;2024-01-15T02:03:34;98224.50;;;0.29;81.53
84760;BME280;74983;51.084;11.086;2024-01-15T02:06:00;98208.94;;;0.18;81.74
84760;BME280;74983;51.084;11.086;2024-01-15T02:08:26;98206.19;;;0.21;81.85
84760;BME280;74983;51.084;11.086;2024-01-15T02:10:51;98208.94;;;0.18;81.23
84760;BME280;74983;51.084;11.086;2024-01-15T02:13:17;98219.38;;;0.15;82.58
84760;BME280;74983;51.084;11.086;2024-01-15T02:15:43;98222.66;;;0.17;82.16
84760;BME280;74983;51.084;11.086;2024-01-15T02:18:08;98222.38;;;0.22;82.24
84760;BME280;74983;51.084;11.086;2024-01-15T02:20:33;98216.19;;;0.26;81.72
84760;BME280;74983;51.084;11.086;2024-01-15T02:23:17;98221.00;;;0.30;82.03
84760;BME280;74983;51.084;11.086;2024-01-15T02:25:46;98216.63;;;0.32;81.48
84760;BME280;74983;51.084;11.086;2024-01-15T02:28:16;98211.31;;;0.35;81.53
84760;BME280;74983;51.084;11.086;2024-01-15T02:30:42;98205.56;;;0.32;80.90
84760;BME280;74983;51.084;11.086;2024-01-15T02:33:08;98213.97;;;0.34;81.95
84760;BME280;74983;51.084;11.086;2024-01-15T02:35:34;98203.84;;;0.32;81.16
84760;BME280;74983;51.084;11.086;2024-01-15T02:38:02;98213.16;;;0.33;81.26
84760;BME280;74983;51.084;11.086;2024-01-15T02:40:27;98203.00;;;0.32;81.00
84760;BME280;74983;51.084;11.086;2024-01-15T02:42:52;98199.56;;;0.33;81.46
84760;BME280;74983;51.084;11.086;2024-01-15T02:45:18;98199.00;;;0.28;81.27
84760;BME280;74983;51.084;11.086;2024-01-15T02:47:43;98214.50;;;0.25;81.30
84760;BME280;74983;51.084;11.086;2024-01-15T02:50:08;98212.34;;;0.19;82.13
84760;BME280;74983;51.084;11.086;2024-01-15T02:52:34;98208.38;;;0.13;81.16
84760;BME280;74983;51.084;11.086;2024-01-15T02:54:59;98223.84;;;0.12;81.37
84760;BME280;74983;51.084;11.086;2024-01-15T02:57:24;98210.75;;;0.16;80.71
84760;BME280;74983;51.084;11.086;2024-01-15T02:59:49;98217.16;;;0.23;81.45
84760;BME280;74983;51.084;11.086;2024-01-15T03:02:15;98209.34;;;0.26;80.73
84760;BME280;74983;51.084;11.086;2024-01-15T03:04:43;98206.50;;;0.31;80.90
84760;BME280;74983;51.084;11.086;2024-01-15T03:07:09;98201.47;;;0.29;80.68
84760;BME280;74983;51.084;11.086;2024-01-15T03:09:34;98206.03;;;0.24;81.50
84760;BME280;74983;51.084;11.086;2024-01-15T03:11:59;98196.69;;;0.23;82.09
84760;BME280;74983;51.084;11.086;2024-01-15T03:14:24;98187.94;;;0.27;81.36
84760;BME280;74983;51.084;11.086;2024-01-15T03:16:51;98198.88;;;0.15;82.30
84760;BME280;74983;51.084;11.086;2024-01-15T03:19:16;98199.97;;;0.11;82.55
84760;BME280;74983;51.084;11.086;2024-01-15T03:21:41;98192.38;;;0.10;82.18
84760;BME280;74983;51.084;11.086;2024-01-15T03:24:07;98201.16;;;0.06;83.08
84760;BME280;74983;51.084;11.086;2024-01-15T03:26:32;98203.97;;;0.01;83.16
84760;BME280;74983;51.084;11.086;2024-01-15T03:28:57;98202.34;;;0.00;82.48
84760;BME280;74983;51.084;11.086;2024-01-15T03:31:22;98198.03;;;0.00;81.75
84760;BME280;74983;51.084;11.086;2024-01-15T03:33:47;98210.00;;;-0.14;82.71
84760;BME280;74983;51.084;11.086;2024-01-15T03:36:13;98208.69;;;-0.21;82.36
84760;BME280;74983;51.084;11.086;2024-01-15T03:38:41;98208.69;;;-0.21;82.39
84760;BME280;74983;51.084;11.086;2024-01-15T03:41:07;98206.03;;;-0.20;82.54
84760;BME280;74983;51.084;11.086;2024-01-15T03:43:33;98205.84;;;-0.17;82.96
84760;BME280;74983;51.084;11.086;2024-01-15T03:45:58;98211.16;;;-0.20;83.05
84760;BME280;74983;51.084;11.086;2024-01-15T03:48:23;98217.84;;;-0.33;82.61
84760;BME280;74983;51.084;11.086;2024-01-15T03:50:48;98209.72;;;-0.39;83.29
84760;BME280;74983;51.084;11.086;2024-01-15T03:53:14;98208.72;;;-0.37;82.64
84760;BME280;74983;51.084;11.086;2024-01-15T03:55:39;98207.81;;;-0.36;82.69
84760;BME280;74983;51.084;11.086;2024-01-15T03:58:04;98216.63;;;-0.41;83.44
84760;BME280;74983;51.084;11.086;2024-01-15T04:00:29;98228.78;;;-0.45;84.20
84760;BME280;74983;51.084;11.086;2024-01-15T04:02:54;98212.09;;;-0.36;84.00
84760;BME280;74983;51.084;11.086;2024-01-15T04:05:20;98233.38;;;-0.36;82.68
84760;BME280;74983;51.084;11.086;2024-01-15T04:07:45;98232.81;;;-0.41;82.75
84760;BME280;74983;51.084;11.086;2024-01-15T04:10:10;98242.47;;;-0.46;84.35
84760;BME280;74983;51.084;11.086;2024-01-15T04:12:36;98234.38;;;-0.54;83.95
84760;BME280;74983;51.084;11.086;2024-01-15T04:15:01;98242.22;;;-0.41;83.76
84760;BME280;74983;51.084;11.086;2024-01-15T04:17:27;98237.59;;;-0.50;84.02
84760;BME280;74983;51.084;11.086;2024-01-15T04:19:52;98241.91;;;-0.51;83.73
84760;BME280;74983;51.084;11.086;2024-01-15T04:22:17;98241.16;;;-0.53;83.30
84760;BME280;74983;51.084;11.086;2024-01-15T04:24:42;98242.41;;;-0.60;83.04
84760;BME280;74983;51.084;11.086;2024-01-15T04:27:08;98244.13;;;-0.60;84.13
84760;BME280;74983;51.084;11.086;2024-01-15T04:29:33;98246.78;;;-0.62;83.58
84760;BME280;74983;51.084;11.086;2024-01-15T04:31:58;98248.66;;;-0.65;84.78
84760;BME280;74983;51.084;11.086;2024-01-15T04:34:23;98240.66;;;-0.59;83.90
84760;BME280;74983;51.084;11.086;2024-01-15T04:36:49;98240.56;;;-0.42;83.22
84760;BME280;74983;51.084;11.086;2024-01-15T04:39:14;98246.53;;;-0.28;83.61
84760;BME280;74983;51.084;11.086;2024-01-15T04:41:39;98249.25;;;-0.15;82.46
84760;BME280;74983;51.084;11.086;2024-01-15T04:44:04;98234.38;;;-0.09;82.97
84760;BME280;74983;51.084;11.086;2024-01-15T04:46:30;98238.31;;;-0.03;82.14
84760;BME280;74983;51.084;11.086;2024-01-15T04:48:55;98234.78;;;-0.01;81.64
84760;BME280;74983;51.084;11.086;2024-01-15T04:51:20;98222.88;;;-0.02;81.76
84760;BME280;74983;51.084;11.086;2024-01-15T04:53:46;98219.03;;;-0.09;82.50
84760;BME280;74983;51.084;11.086;2024-01-15T04:56:11;98231.84;;;-0.24;81.92
84760;BME280;74983;51.084;11.086;2024-01-15T04:58:36;98220.41;;;-0.33;83.12
84760;BME280;74983;51.084;11.086;2024-01-15T05:01:01;98228.44;;;-0.39;83.96
84760;BME280;74983;51.084;11.086;2024-01-15T05:03:27;98211.72;;;-0.44;84.05
84760;BME280;74983;51.084;11.086;2024-01-15T05:05:52;98194.06;;;-0.49;83.09
84760;BME280;74983;51.084;11.086;2024-01-15T05:08:17;98199.25;;;-0.50;83.11
84760;BME280;74983;51.084;11.086;2024-01-15T05:10:42;98194.06;;;-0.49;83.79
84760;BME280;74983;51.084;11.086;2024-01-15T05:13:07;98196.22;;;-0.57;83.98
84760;BME280;74983;51.084;11.086;2024-01-15T05:15:33;98203.91;;;-0.57;83.50
84760;BME280;74983;51.084;11.086;2024-01-15T05:17:58;98201.91;;;-0.52;83.38
84760;BME280;74983;51.084;11.086;2024-01-15T05:20:23;98194.88;;;-0.48;83.37
84760;BME280;74983;51.084;11.086;2024-01-15T05:22:49;98189.03;;;-0.50;83.99
84760;BME280;74983;51.084;11.086;2024-01-15T05:25:14;98192.69;;;-0.54;83.91
84760;BME280;74983;51.084;11.086;2024-01-15T05:27:39;98181.88;;;-0.59;84.34
84760;BME280;74983;51.084;11.086;2024-01-15T05:30:05;98178.50;;;-0.60;83.88
84760;BME280;74983;51.084;11.086;2024-01-15T05:32:30;98172.66;;;-0.62;84.32
84760;BME280;74983;51.084;11.086;2024-01-15T05:34:55;98171.16;;;-0.66;83.37
84760;BME280;74983;51.084;11.086;2024-01-15T05:37:20;98172.09;;;-0.67;84.67
84760;BME280;74983;51.084;11.086;2024-01-15T05:39:46;98189.31;;;-0.70;83.19
84760;BME280;74983;51.084;11.086;2024-01-15T05:42:11;98180.34;;;-0.77;84.70
84760;BME280;74983;51.084;11.086;2024-01-15T05:44:36;98177.22;;;-0.82;85.01
84760;BME280;74983;51.084;11.086;2024-01-15T05:47:01;98174.22;;;-0.75;83.92
84760;BME280;74983;51.084;11.086;2024-01-15T05:49:29;98165.31;;;-0.68;84.14
84760;BME280;74983;51.084;11.086;2024-01-15T05:51:54;98162.75;;;-0.68;84.48
84760;BME280;74983;51.084;11.086;2024-01-15T05:54:20;98161.47;;;-0.75;84.42
84760;BME280;74983;51.084;11.086;2024-01-15T05:56:45;98160.00;;;-0.79;85.41
84760;BME280;74983;51.084;11.086;2024-01-15T05:59:10;98151.50;;;-0.79;84.86
84760;BME280;74983;51.084;11.086;2024-01-15T06:01:36;98160.16;;;-0.82;84.90
84760;BME280;74983;51.084;11.086;2024-01-15T06:04:01;98154.16;;;-0.81;85.23
84760;BME280;74983;51.084;11.086;2024-01-15T06:06:27;98150.09;;;-0.85;84.44
84760;BME280;74983;51.084;11.086;2024-01-15T06:08:52;98144.75;;;-0.80;84.87
84760;BME280;74983;51.084;11.086;2024-01-15T06:11:17;98158.75;;;-0.72;85.08
84760;BME280;74983;51.084;11.086;2024-01-15T06:13:42;98153.88;;;-0.76;84.99
84760;BME280;74983;51.084;11.086;2024-01-15T06:16:14;98157.78;;;-0.85;84.10
84760;BME280;74983;51.084;11.086;2024-01-15T06:18:41;98173.53;;;-0.92;86.19
84760;BME280;74983;51.084;11.086;2024-01-15T06:21:06;98162.31;;;-0.90;84.62
84760;BME280;74983;51.084;11.086;2024-01-15T06:23:32;98154.75;;;-0.91;85.01
84760;BME280;74983;51.084;11.086;2024-01-15T06:25:57;98167.81;;;-0.82;85.02
84760;BME280;74983;51.084;11.086;2024-01-15T06:28:22;98158.69;;;-0.86;85.78
84760;BME280;74983;51.084;11.086;2024-01-15T06:30:47;98158.44;;;-0.81;84.90
84760;BME280;74983;51.084;11.086;2024-01-15T06:33:13;98153.13;;;-0.78;84.73
84760;BME280;74983;51.084;11.086;2024-01-15T06:35:38;98156.94;;;-0.70;83.86
84760;BME280;74983;51.084;11.086;2024-01-15T06:38:03;98163.22;;;-0.75;85.16
84760;BME280;74983;51.084;11.086;2024-01-15T06:40:28;98160.81;;;-0.63;83.97
84760;BME280;74983;51.084;11.086;2024-01-15T06:42:54;98149.66;;;-0.62;83.52
84760;BME280;74983;51.084;11.086;2024-01-15T06:45:19;98152.88;;;-0.58;83.18
84760;BME280;74983;51.084;11.086;2024-01-15T06:47:44;98151.06;;;-0.56;83.12
84760;BME280;74983;51.084;11.086;2024-01-15T06:50:09;98142.56;;;-0.57;82.17
84760;BME280;74983;51.084;11.086;2024-01-15T06:52:34;98141.81;;;-0.59;83.09
84760;BME280;74983;51.084;11.086;2024-01-15T06:55:00;98142.94;;;-0.49;81.46
84760;BME280;74983;51.084;11.086;2024-01-15T06:57:25;98145.66;;;-0.52;83.32
84760;BME280;74983;51.084;11.086;2024-01-15T06:59:50;98155.66;;;-0.47;81.90
84760;BME280;74983;51.084;11.086;2024-01-15T07:02:15;98158.41;;;-0.36;82.30
84760;BME280;74983;51.084;11.086;2024-01-15T07:04:41;98164.44;;;-0.37;81.11
84760;BME280;74983;51.084;11.086;2024-01-15T07:07:06;98171.75;;;-0.31;82.31
84760;BME280;74983;51.084;11.086;2024-01-15T07:09:31;98164.81;;;-0.29;81.44
84760;BME280;74983;51.084;11.086;2024-01-15T07:11:56;98171.78;;;-0.17;80.94
84760;BME280;74983;51.084;11.086;2024-01-15T07:14:23;98166.09;;;-0.22;81.53
84760;BME280;74983;51.084;11.086;2024-01-15T07:16:48;98163.81;;;-0.27;81.62
84760;BME280;74983;51.084;11.086;2024-01-15T07:19:13;98165.47;;;-0.26;80.59
84760;BME280;74983;51.084;11.086;2024-01-15T07:21:39;98160.63;;;-0.30;81.79
84760;BME280;74983;51.084;11.086;2024-01-15T07:24:05;98150.66;;;-0.21;81.16
84760;BME280;74983;51.084;11.086;2024-01-15T07:26:30;98162.56;;;-0.20;80.47
84760;BME280;74983;51.084;11.086;2024-01-15T07:28:56;98164.72;;;-0.28;81.23
84760;BME280;74983;51.084;11.086;2024-01-15T07:31:21;98159.34;;;-0.23;80.27
84760;BME280;74983;51.084;11.086;2024-01-15T07:33:47;98155.97;;;-0.24;80.43
84760;BME280;74983;51.084;11.086;2024-01-15T07:36:12;98158.91;;;-0.16;80.44
84760;BME280;74983;51.084;11.086;2024-01-15T07:38:37;98161.94;;;-0.09;79.99
84760;BME280;74983;51.084;11.086;2024-01-15T07:41:03;98163.25;;;-0.02;79.32
84760;BME280;74983;51.084;11.086;2024-01-15T07:43:29;98169.44;;;-0.06;80.24
84760;BME280;74983;51.084;11.086;2024-01-15T07:45:54;98180.66;;;-0.09;80.95
84760;BME280;74983;51.084;11.086;2024-01-15T07:48:19;98166.91;;;0.08;81.24
84760;BME280;74983;51.084;11.086;2024-01-15T07:50:45;98174.19;;;0.14;80.80
84760;BME280;74983;51.084;11.086;2024-01-15T07:53:10;98162.97;;;0.03;81.76
84760;BME280;74983;51.084;11.086;2024-01-15T07:55:36;98173.81;;;-0.08;82.14
84760;BME280;74983;51.084;11.086;2024-01-15T07:58:01;98176.91;;;-0.03;81.79
84760;BME280;74983;51.084;11.086;2024-01-15T08:00:27;98171.25;;;-0.08;81.17
84760;BME280;74983;51.084;11.086;2024-01-15T08:02:52;98164.75;;;-0.14;82.11
84760;BME280;74983;51.084;11.086;2024-01-15T08:05:18;98171.44;;;-0.11;81.61
84760;BME280;74983;51.084;11.086;2024-01-15T08:07:43;98169.72;;;-0.11;81.68
84760;BME280;74983;51.084;11.086;2024-01-15T08:10:09;98178.94;;;-0.08;81.56
84760;BME280;74983;51.084;11.086;2024-01-15T08:12:34;98174.38;;;-0.03;81.45
84760;BME280;74983;51.084;11.086;2024-01-15T08:15:00;98171.28;;;0.06;80.69
84760;BME280;74983;51.084;11.086;2024-01-15T08:17:25;98170.94;;;0.12;80.27
84760;BME280;74983;51.084;11.086;2024-01-15T08:19:54;98168.44;;;0.11;79.37
84760;BME280;74983;51.084;11.086;2024-01-15T08:22:19;98173.84;;;0.06;80.42
84760;BME280;74983;51.084;11.086;2024-01-15T08:24:45;98172.38;;;0.16;79.58
84760;BME280;74983;51.084;11.086;2024-01-15T08:27:10;98168.09;;;0.17;80.30
84760;BME280;74983;51.084;11.086;2024-01-15T08:29:36;98155.31;;;0.31;78.54
84760;BME280;74983;51.084;11.086;2024-01-15T08:32:01;98159.03;;;0.25;79.26
84760;BME280;74983;51.084;11.086;2024-01-15T08:34:26;98148.44;;;0.31;79.44
84760;BME280;74983;51.084;11.086;2024-01-15T08:36:51;98154.66;;;0.41;78.88
84760;BME280;74983;51.084;11.086;2024-01-15T08:39:17;98148.25;;;0.34;79.48
84760;BME280;74983;51.084;11.086;2024-01-15T08:41:44;98162.78;;;0.34;79.19
84760;BME280;74983;51.084;11.086;2024-01-15T08:44:09;98165.63;;;0.43;78.82
84760;BME280;74983;51.084;11.086;2024-01-15T08:46:35;98167.53;;;0.68;78.13
84760;BME280;74983;51.084;11.086;2024-01-15T08:49:00;98162.84;;;0.74;77.57
84760;BME280;74983;51.084;11.086;2024-01-15T08:51:25;98169.81;;;0.72;77.70
84760;BME280;74983;51.084;11.086;2024-01-15T08:53:50;98175.66;;;0.74;77.67
84760;BME280;74983;51.084;11.086;2024-01-15T08:56:16;98174.19;;;0.70;78.21
84760;BME280;74983;51.084;11.086;2024-01-15T08:58:41;98177.06;;;0.66;79.60
84760;BME280;74983;51.084;11.086;2024-01-15T09:01:06;98175.38;;;0.65;79.89
84760;BME280;74983;51.084;11.086;2024-01-15T09:03:31;98162.69;;;0.63;79.60
84760;BME280;74983;51.084;11.086;2024-01-15T09:05:58;98172.19;;;0.61;78.93
84760;BME280;74983;51.084;11.086;2024-01-15T09:08:24;98172.09;;;0.63;79.62
84760;BME280;74983;51.084;11.086;2024-01-15T09:10:49;98187.19;;;0.67;79.45
84760;BME280;74983;51.084;11.086;2024-01-15T09:13:15;98171.00;;;0.67;79.52
84760;BME280;74983;51.084;11.086;2024-01-15T09:15:41;98179.06;;;0.75;78.91
84760;BME280;74983;51.084;11.086;2024-01-15T09:18:07;98173.81;;;0.90;79.15
84760;BME280;74983;51.084;11.086;2024-01-15T09:20:33;98181.47;;;1.04;78.20
84760;BME280;74983;51.084;11.086;2024-01-15T09:22:58;98180.16;;;1.11;76.95
84760;BME280;74983;51.084;11.086;2024-01-15T09:25:23;98184.72;;;1.06;78.30
84760;BME280;74983;51.084;11.086;2024-01-15T09:27:48;98187.69;;;1.00;78.28
84760;BME280;74983;51.084;11.086;2024-01-15T09:30:14;98182.28;;;1.05;78.02
84760;BME280;74983;51.084;11.086;2024-01-15T09:32:39;98190.94;;;1.43;77.84
84760;BME280;74983;51.084;11.086;2024-01-15T09:35:05;98173.91;;;1.94;75.29
84760;BME280;74983;51.084;11.086;2024-01-15T09:37:31;98189.66;;;2.27;73.71
84760;BME280;74983;51.084;11.086;2024-01-15T09:39:56;98183.50;;;2.29;73.85
84760;BME280;74983;51.084;11.086;2024-01-15T09:42:23;98196.13;;;2.07;73.30
84760;BME280;74983;51.084;11.086;2024-01-15T09:44:50;98192.28;;;1.75;74.45
84760;BME280;74983;51.084;11.086;2024-01-15T09:47:15;98193.97;;;1.50;75.41
84760;BME280;74983;51.084;11.086;2024-01-15T09:49:41;98192.59;;;1.44;76.12
84760;BME280;74983;51.084;11.086;2024-01-15T09:52:07;98201.66;;;1.50;75.64
84760;BME280;74983;51.084;11.086;2024-01-15T09:54:33;98199.66;;;1.80;74.86
84760;BME280;74983;51.084;11.086;2024-01-15T09:56:59;98202.47;;;1.89;74.21
84760;BME280;74983;51.084;11.086;2024-01-15T09:59:25;98200.66;;;1.65;75.84
84760;BME280;74983;51.084;11.086;2024-01-15T10:01:52;98191.28;;;1.51;76.11
84760;BME280;74983;51.084;11.086;2024-01-15T10:04:18;98185.81;;;1.43;75.30
84760;BME280;74983;51.084;11.086;2024-01-15T10:06:45;98179.63;;;1.33;75.47
84760;BME280;74983;51.084;11.086;2024-01-15T10:09:12;98184.97;;;1.30;76.14
84760;BME280;74983;51.084;11.086;2024-01-15T10:11:39;98187.53;;;1.30;77.10
84760;BME280;74983;51.084;11.086;2024-01-15T10:14:04;98176.44;;;1.30;76.15
84760;BME280;74983;51.084;11.086;2024-01-15T10:16:30;98167.38;;;1.24;76.72
84760;BME280;74983;51.084;11.086;2024-01-15T10:18:55;98182.03;;;1.22;77.19
84760;BME280;74983;51.084;11.086;2024-01-15T10:21:20;98169.78;;;1.27;75.86
84760;BME280;74983;51.084;11.086;2024-01-15T10:23:46;98170.78;;;1.25;76.56
84760;BME280;74983;51.084;11.086;2024-01-15T10:26:11;98167.00;;;1.30;76.39
84760;BME280;74983;51.084;11.086;2024-01-15T10:28:37;98166.72;;;1.35;75.66
84760;BME280;74983;51.084;11.086;2024-01-15T10:31:02;98163.72;;;1.28;76.63
84760;BME280;74983;51.084;11.086;2024-01-15T10:33:28;98166.72;;;1.35;75.96
84760;BME280;74983;51.084;11.086;2024-01-15T10:36:00;98154.34;;;1.54;74.91
84760;BME280;74983;51.084;11.086;2024-01-15T10:38:26;98153.06;;;1.73;75.46
84760;BME280;74983;51.084;11.086;2024-01-15T10:40:55;98153.06;;;1.73;75.39
84760;BME280;74983;51.084;11.086;2024-01-15T10:43:21;98138.72;;;1.71;74.07
84760;BME280;74983;51.084;11.086;2024-01-15T10:45:48;98119.28;;;1.67;74.38
84760;BME280;74983;51.084;11.086;2024-01-15T10:48:16;98129.22;;;1.59;74.28
84760;BME280;74983;51.084;11.086;2024-01-15T10:50:41;98138.59;;;1.72;75.42
84760;BME280;74983;51.084;11.086;2024-01-15T10:53:08;98142.16;;;1.57;74.93
84760;BME280;74983;51.084;11.086;2024-01-15T10:55:35;98136.13;;;1.71;74.70
84760;BME280;74983;51.084;11.086;2024-01-15T10:58:02;98120.56;;;1.86;74.26
84760;BME280;74983;51.084;11.086;2024-01-15T11:00:29;98126.19;;;2.16;72.57
84760;BME280;74983;51.084;11.086;2024-01-15T11:02:55;98119.81;;;2.35;72.79
84760;BME280;74983;51.084;11.086;2024-01-15T11:05:21;98119.09;;;2.33;73.15
84760;BME280;74983;51.084;11.086;2024-01-15T11:07:50;98106.63;;;2.52;72.35
84760;BME280;74983;51.084;11.086;2024-01-15T11:13:14;98104.44;;;3.18;70.76
84760;BME280;74983;51.084;11.086;2024-01-15T11:16:02;98112.69;;;3.34;69.38
84760;BME280;74983;51.084;11.086;2024-01-15T11:18:29;98111.97;;;3.67;69.57
84760;BME280;74983;51.084;11.086;2024-01-15T11:23:45;98115.50;;;3.07;69.43
84760;BME280;74983;51.084;11.086;2024-01-15T11:26:27;98116.13;;;2.75;70.59
84760;BME280;74983;51.084;11.086;2024-01-15T11:28:54;98093.16;;;2.48;71.24
84760;BME280;74983;51.084;11.086;2024-01-15T11:31:20;98106.88;;;2.72;71.58
84760;BME280;74983;51.084;11.086;2024-01-15T11:33:49;98104.38;;;2.83;70.96
84760;BME280;74983;51.084;11.086;2024-01-15T11:36:15;98111.81;;;2.75;70.59
84760;BME280;74983;51.084;11.086;2024-01-15T11:38:40;98101.88;;;2.94;71.22
84760;BME280;74983;51.084;11.086;2024-01-15T11:41:13;98109.53;;;2.83;70.90
84760;BME280;74983;51.084;11.086;2024-01-15T11:43:40;98090.81;;;2.45;71.64
84760;BME280;74983;51.084;11.086;2024-01-15T11:46:10;98086.56;;;2.57;71.32
84760;BME280;74983;51.084;11.086;2024-01-15T11:48:42;98097.56;;;2.59;71.50
84760;BME280;74983;51.084;11.086;2024-01-15T11:51:11;98098.19;;;2.50;72.04
84760;BME280;74983;51.084;11.086;2024-01-15T11:53:43;98090.22;;;2.42;72.40
84760;BME280;74983;51.084;11.086;2024-01-15T11:56:16;98098.00;;;2.53;72.22
84760;BME280;74983;51.084;11.086;2024-01-15T11:58:43;98110.25;;;2.49;71.75
84760;BME280;74983;51.084;11.086;2024-01-15T12:01:09;98101.94;;;2.33;72.43
84760;BME280;74983;51.084;11.086;2024-01-15T12:03:35;98098.03;;;2.40;73.91
84760;BME280;74983;51.084;11.086;2024-01-15T12:06:00;98094.38;;;2.55;71.40
84760;BME280;74983;51.084;11.086;2024-01-15T12:08:26;98092.44;;;2.59;72.83
84760;BME280;74983;51.084;11.086;2024-01-15T12:10:52;98085.25;;;2.51;71.86
84760;BME280;74983;51.084;11.086;2024-01-15T12:13:17;98097.84;;;2.18;73.11
84760;BME280;74983;51.084;11.086;2024-01-15T12:15:44;98103.22;;;1.90;74.26
84760;BME280;74983;51.084;11.086;2024-01-15T12:18:11;98108.00;;;1.69;75.06
84760;BME280;74983;51.084;11.086;2024-01-15T12:20:37;98101.72;;;1.61;75.74
84760;BME280;74983;51.084;11.086;2024-01-15T12:23:03;98094.38;;;1.69;76.28
84760;BME280;74983;51.084;11.086;2024-01-15T12:25:30;98100.81;;;1.87;75.64
84760;BME280;74983;51.084;11.086;2024-01-15T12:27:56;98104.34;;;1.98;75.66
84760;BME280;74983;51.084;11.086;2024-01-15T12:30:22;98096.63;;;1.98;75.46
84760;BME280;74983;51.084;11.086;2024-01-15T12:32:47;98095.19;;;2.07;75.88
84760;BME280;74983;51.084;11.086;2024-01-15T12:35:13;98101.56;;;2.01;76.09
84760;BME280;74983;51.084;11.086;2024-01-15T12:37:39;98104.00;;;2.03;74.92
84760;BME280;74983;51.084;11.086;2024-01-15T12:40:07;98096.09;;;2.18;74.35
84760;BME280;74983;51.084;11.086;2024-01-15T12:42:33;98099.88;;;2.25;75.32
84760;BME280;74983;51.084;11.086;2024-01-15T12:45:00;98097.09;;;2.41;74.60
84760;BME280;74983;51.084;11.086;2024-01-15T12:47:25;98098.00;;;2.53;73.69
84760;BME280;74983;51.084;11.086;2024-01-15T12:49:52;98103.84;;;2.55;75.31
84760;BME280;74983;51.084;11.086;2024-01-15T12:52:19;98102.06;;;2.68;74.11
84760;BME280;74983;51.084;11.086;2024-01-15T12:54:46;98097.44;;;2.60;74.18